LEBBGCLA

Guest
Details From LEBB - Bilbao
To GCLA - La Palma
Flight Number -
Tags Generated
Created
Modified
Stats Distance 1,137 nm / 2,106 km
Max Altitude 0 ft / 0 m
Waypoints 5
Social Downloads 1
Likes 0
Share VATSIM

Download

Looking for another format? Having issues loading an existing format? Contact us
Advertisement - Login to hide

Notes

Generated

Route

LEBB BARDI NAKOS BX GCLA

ID Type Via Altitude Latitude Longitude Leg Dist Tot Dist Heading (true) Name
O LEBB APT - 0 ft / 0 m 43.30335˚ -2.93703˚ - 0 nm - -
BARDI FIX - 0 ft / 0 m 40.58349˚ -6.30246˚ 221 nm 221 nm 224° / 222° -
NAKOS FIX - 0 ft / 0 m 38.00000˚ -9.33444˚ 209 nm 431 nm 223° / 221° -
BX NDB - 0 ft / 0 m 28.60169˚ -17.75684˚ 704 nm 1136 nm 219° / 215° LA PALMA NDB
O GCLA APT - 0 ft / 0 m 28.61659˚ -17.75542˚ 0 nm 1136 nm 5° / 5° -

Altitude Profile

Advertisement - Login to hide

Weather


0- 5 10 15 20 25 30 35+ Temperature / ° C

Clouds and Precipitation
Forecast for 2017-12-13 00:00 UTC. Updated an hour ago

Ground ~20,000 ft ~40,000 ft Winds

LEBB

Details ICAO LEBB (BIO)
Name Bilbao
Region Spain
Timezone Europe/Madrid (UTC+1.0)
Stats Elevation 137 ft / 42 m (AMSL)
Location 43.301692° -2.917664°
Runways 2
Magnetic Variation 0.630° W

METAR

LEBB 122030Z 00000KT 9999 SCT060 06/04 Q1021 NOSIG

Decode

TAF

TAF LEBB 121700Z 1218/1318 20009KT 9999 SCT040 TX15/1314Z TN04/1304Z PROB30 TEMPO 1218/1221 RA SHRA SCT030TCU TEMPO 1303/1318 20015G25KT

Decode

Departure Runways

ID Width Length Bearing (true) Bearing (mag) Surface Threshold Offset Overrun Length
10 148 ft / 45 m 6,569 ft / 2,002 m 96.66° 97.29° Asphalt 20 ft / 6 m 184 ft / 56 m
12 148 ft / 45 m 8,539 ft / 2,603 m 116.73° 117.36° Asphalt 20 ft / 6 m 197 ft / 60 m
28 148 ft / 45 m 6,569 ft / 2,002 m 276.68° 277.31° Asphalt 23 ft / 7 m 0 ft / 0 m
30 148 ft / 45 m 8,539 ft / 2,603 m 296.75° 297.38° Asphalt 1,509 ft / 460 m 171 ft / 52 m

GCLA

Details ICAO GCLA (SPC)
Name La Palma
Region Canary Islands
Timezone Atlantic/Canary (UTC+0.0)
Stats Elevation 107 ft / 33 m (AMSL)
Location 28.626480° -17.755613°
Runways 1
Magnetic Variation 5.523° W

METAR

GCLA 122030Z 01022KT 9999 FEW030 SCT060 19/11 Q1023

Decode

TAF

TAF GCLA 122000Z 1221/1321 02020KT 9999 BKN030 TX20/1314Z TN17/1306Z TEMPO 1221/1321 02020G30KT PROB40 TEMPO 1221/1315 4000 RA

Decode

Destination Runways

ID Width Length Bearing (true) Bearing (mag) Surface Threshold Offset Overrun Length
01 148 ft / 45 m 7,240 ft / 2,207 m 359.02° 4.54° Asphalt 0 ft / 0 m 279 ft / 85 m
19 148 ft / 45 m 7,240 ft / 2,207 m 179.02° 184.54° Asphalt 0 ft / 0 m 236 ft / 72 m

Popular Alternatives